sensor_id;sensor_type;location;lat;lon;timestamp;P1;durP1;ratioP1;P2;durP2;ratioP2
57389;SDS011;43217;52.694;6.214;2023-06-14T00:00:51;2.95;;;2.65;;
57389;SDS011;43217;52.694;6.214;2023-06-14T00:03:18;4.38;;;2.80;;
57389;SDS011;43217;52.694;6.214;2023-06-14T00:05:44;3.33;;;2.75;;
57389;SDS011;43217;52.694;6.214;2023-06-14T00:08:11;2.85;;;2.60;;
57389;SDS011;43217;52.694;6.214;2023-06-14T00:10:37;4.72;;;2.60;;
57389;SDS011;43217;52.694;6.214;2023-06-14T00:13:05;3.25;;;2.92;;
57389;SDS011;43217;52.694;6.214;2023-06-14T00:15:32;4.53;;;2.85;;
57389;SDS011;43217;52.694;6.214;2023-06-14T00:17:58;5.03;;;2.72;;
57389;SDS011;43217;52.694;6.214;2023-06-14T00:20:29;6.15;;;2.63;;
57389;SDS011;43217;52.694;6.214;2023-06-14T00:22:56;5.45;;;2.63;;
57389;SDS011;43217;52.694;6.214;2023-06-14T00:25:23;4.38;;;2.40;;
57389;SDS011;43217;52.694;6.214;2023-06-14T00:27:50;4.10;;;2.65;;
57389;SDS011;43217;52.694;6.214;2023-06-14T00:30:16;4.15;;;2.95;;
57389;SDS011;43217;52.694;6.214;2023-06-14T00:32:43;6.05;;;2.70;;
57389;SDS011;43217;52.694;6.214;2023-06-14T00:35:09;4.60;;;2.58;;
57389;SDS011;43217;52.694;6.214;2023-06-14T00:37:35;6.25;;;2.90;;
57389;SDS011;43217;52.694;6.214;2023-06-14T00:40:01;6.50;;;2.70;;
57389;SDS011;43217;52.694;6.214;2023-06-14T00:42:29;5.03;;;2.88;;
57389;SDS011;43217;52.694;6.214;2023-06-14T00:44:54;4.20;;;2.60;;
57389;SDS011;43217;52.694;6.214;2023-06-14T00:47:20;3.72;;;2.70;;
57389;SDS011;43217;52.694;6.214;2023-06-14T00:49:46;5.50;;;2.70;;
57389;SDS011;43217;52.694;6.214;2023-06-14T00:52:13;3.88;;;2.92;;
57389;SDS011;43217;52.694;6.214;2023-06-14T00:57:07;4.68;;;2.83;;
57389;SDS011;43217;52.694;6.214;2023-06-14T00:59:33;4.15;;;2.63;;
57389;SDS011;43217;52.694;6.214;2023-06-14T01:02:03;6.40;;;2.92;;
57389;SDS011;43217;52.694;6.214;2023-06-14T01:04:29;4.93;;;2.85;;
57389;SDS011;43217;52.694;6.214;2023-06-14T01:07:31;5.20;;;2.50;;
57389;SDS011;43217;52.694;6.214;2023-06-14T01:15:12;3.45;;;2.55;;
57389;SDS011;43217;52.694;6.214;2023-06-14T01:17:38;4.50;;;2.53;;
57389;SDS011;43217;52.694;6.214;2023-06-14T01:20:09;5.05;;;3.10;;
57389;SDS011;43217;52.694;6.214;2023-06-14T01:22:44;5.40;;;2.80;;
57389;SDS011;43217;52.694;6.214;2023-06-14T01:25:17;4.70;;;2.72;;
57389;SDS011;43217;52.694;6.214;2023-06-14T01:28:21;4.43;;;2.70;;
57389;SDS011;43217;52.694;6.214;2023-06-14T01:30:42;5.90;;;2.72;;
57389;SDS011;43217;52.694;6.214;2023-06-14T01:33:12;3.33;;;2.67;;
57389;SDS011;43217;52.694;6.214;2023-06-14T01:35:38;4.00;;;2.60;;
57389;SDS011;43217;52.694;6.214;2023-06-14T01:38:06;4.40;;;2.55;;
57389;SDS011;43217;52.694;6.214;2023-06-14T01:40:33;4.90;;;2.88;;
57389;SDS011;43217;52.694;6.214;2023-06-14T01:43:00;8.57;;;2.83;;
57389;SDS011;43217;52.694;6.214;2023-06-14T01:45:27;2.90;;;2.33;;
57389;SDS011;43217;52.694;6.214;2023-06-14T01:47:53;4.53;;;2.53;;
57389;SDS011;43217;52.694;6.214;2023-06-14T01:50:20;6.35;;;2.60;;
57389;SDS011;43217;52.694;6.214;2023-06-14T01:52:46;3.22;;;2.80;;
57389;SDS011;43217;52.694;6.214;2023-06-14T01:55:12;3.90;;;2.95;;
57389;SDS011;43217;52.694;6.214;2023-06-14T01:57:38;7.18;;;2.70;;
57389;SDS011;43217;52.694;6.214;2023-06-14T02:00:04;2.55;;;2.17;;
57389;SDS011;43217;52.694;6.214;2023-06-14T02:02:33;3.47;;;2.50;;
57389;SDS011;43217;52.694;6.214;2023-06-14T02:04:59;3.90;;;2.70;;
57389;SDS011;43217;52.694;6.214;2023-06-14T02:07:24;4.97;;;3.05;;
57389;SDS011;43217;52.694;6.214;2023-06-14T02:09:50;3.47;;;2.45;;
57389;SDS011;43217;52.694;6.214;2023-06-14T02:12:17;3.93;;;2.37;;
57389;SDS011;43217;52.694;6.214;2023-06-14T02:14:42;3.28;;;2.70;;
57389;SDS011;43217;52.694;6.214;2023-06-14T02:17:09;4.20;;;2.58;;
57389;SDS011;43217;52.694;6.214;2023-06-14T02:19:35;4.68;;;2.67;;
57389;SDS011;43217;52.694;6.214;2023-06-14T02:22:01;4.85;;;2.92;;
57389;SDS011;43217;52.694;6.214;2023-06-14T02:24:26;3.78;;;2.85;;
57389;SDS011;43217;52.694;6.214;2023-06-14T02:26:52;6.70;;;3.30;;
57389;SDS011;43217;52.694;6.214;2023-06-14T02:29:17;3.90;;;2.55;;
57389;SDS011;43217;52.694;6.214;2023-06-14T02:31:43;3.88;;;2.70;;
57389;SDS011;43217;52.694;6.214;2023-06-14T02:34:09;5.65;;;2.80;;
57389;SDS011;43217;52.694;6.214;2023-06-14T02:36:34;4.85;;;2.47;;
57389;SDS011;43217;52.694;6.214;2023-06-14T02:39:05;4.38;;;2.90;;
57389;SDS011;43217;52.694;6.214;2023-06-14T02:41:31;2.92;;;2.63;;
57389;SDS011;43217;52.694;6.214;2023-06-14T02:43:56;3.05;;;2.63;;
57389;SDS011;43217;52.694;6.214;2023-06-14T02:46:23;4.88;;;2.78;;
57389;SDS011;43217;52.694;6.214;2023-06-14T02:48:49;3.22;;;2.90;;
57389;SDS011;43217;52.694;6.214;2023-06-14T02:51:15;4.47;;;2.92;;
57389;SDS011;43217;52.694;6.214;2023-06-14T02:53:40;4.53;;;2.80;;
57389;SDS011;43217;52.694;6.214;2023-06-14T02:56:06;4.53;;;2.55;;
57389;SDS011;43217;52.694;6.214;2023-06-14T02:58:31;5.65;;;2.78;;
57389;SDS011;43217;52.694;6.214;2023-06-14T03:00:58;4.45;;;2.95;;
57389;SDS011;43217;52.694;6.214;2023-06-14T03:03:29;3.67;;;2.50;;
57389;SDS011;43217;52.694;6.214;2023-06-14T03:05:54;5.43;;;2.75;;
57389;SDS011;43217;52.694;6.214;2023-06-14T03:08:21;5.05;;;2.83;;
57389;SDS011;43217;52.694;6.214;2023-06-14T03:10:51;4.93;;;2.72;;
57389;SDS011;43217;52.694;6.214;2023-06-14T03:13:18;3.70;;;2.90;;
57389;SDS011;43217;52.694;6.214;2023-06-14T03:15:46;4.38;;;2.47;;
57389;SDS011;43217;52.694;6.214;2023-06-14T03:18:12;4.07;;;2.75;;
57389;SDS011;43217;52.694;6.214;2023-06-14T03:20:40;4.15;;;2.70;;
57389;SDS011;43217;52.694;6.214;2023-06-14T03:23:06;5.05;;;3.13;;
57389;SDS011;43217;52.694;6.214;2023-06-14T03:25:32;4.05;;;3.00;;
57389;SDS011;43217;52.694;6.214;2023-06-14T03:28:00;3.63;;;2.60;;
57389;SDS011;43217;52.694;6.214;2023-06-14T03:30:26;4.30;;;3.10;;
57389;SDS011;43217;52.694;6.214;2023-06-14T03:32:52;5.97;;;2.97;;
57389;SDS011;43217;52.694;6.214;2023-06-14T03:35:18;5.40;;;3.17;;
57389;SDS011;43217;52.694;6.214;2023-06-14T03:37:44;3.77;;;3.00;;
57389;SDS011;43217;52.694;6.214;2023-06-14T03:40:12;5.00;;;2.72;;
57389;SDS011;43217;52.694;6.214;2023-06-14T03:42:38;4.45;;;2.60;;
57389;SDS011;43217;52.694;6.214;2023-06-14T03:45:05;3.83;;;2.92;;
57389;SDS011;43217;52.694;6.214;2023-06-14T03:47:31;3.97;;;2.97;;
57389;SDS011;43217;52.694;6.214;2023-06-14T03:49:57;3.55;;;2.80;;
57389;SDS011;43217;52.694;6.214;2023-06-14T03:52:22;4.15;;;2.88;;
57389;SDS011;43217;52.694;6.214;2023-06-14T03:54:48;4.28;;;2.70;;
57389;SDS011;43217;52.694;6.214;2023-06-14T03:57:14;5.32;;;3.00;;
57389;SDS011;43217;52.694;6.214;2023-06-14T03:59:40;4.78;;;2.83;;
57389;SDS011;43217;52.694;6.214;2023-06-14T04:02:06;5.28;;;2.80;;
57389;SDS011;43217;52.694;6.214;2023-06-14T04:04:32;6.13;;;3.35;;
57389;SDS011;43217;52.694;6.214;2023-06-14T04:06:58;5.10;;;2.90;;
57389;SDS011;43217;52.694;6.214;2023-06-14T04:09:25;4.10;;;2.70;;
57389;SDS011;43217;52.694;6.214;2023-06-14T04:11:52;4.00;;;2.70;;
57389;SDS011;43217;52.694;6.214;2023-06-14T04:14:18;4.75;;;3.22;;
57389;SDS011;43217;52.694;6.214;2023-06-14T04:16:45;4.33;;;2.47;;
57389;SDS011;43217;52.694;6.214;2023-06-14T04:19:11;3.45;;;2.70;;
57389;SDS011;43217;52.694;6.214;2023-06-14T04:21:37;4.30;;;2.78;;
57389;SDS011;43217;52.694;6.214;2023-06-14T04:24:02;3.53;;;2.70;;
57389;SDS011;43217;52.694;6.214;2023-06-14T04:26:29;5.43;;;3.10;;
57389;SDS011;43217;52.694;6.214;2023-06-14T04:28:55;3.22;;;2.83;;
57389;SDS011;43217;52.694;6.214;2023-06-14T04:31:22;5.68;;;3.30;;
57389;SDS011;43217;52.694;6.214;2023-06-14T04:33:51;7.40;;;2.92;;
57389;SDS011;43217;52.694;6.214;2023-06-14T04:36:18;3.83;;;2.90;;
57389;SDS011;43217;52.694;6.214;2023-06-14T04:38:44;4.03;;;3.00;;
57389;SDS011;43217;52.694;6.214;2023-06-14T04:41:11;3.33;;;2.90;;
57389;SDS011;43217;52.694;6.214;2023-06-14T04:43:37;4.80;;;3.97;;
57389;SDS011;43217;52.694;6.214;2023-06-14T04:46:06;5.45;;;2.88;;
57389;SDS011;43217;52.694;6.214;2023-06-14T04:48:36;3.15;;;2.85;;
57389;SDS011;43217;52.694;6.214;2023-06-14T04:51:04;3.67;;;3.13;;
57389;SDS011;43217;52.694;6.214;2023-06-14T04:53:30;4.43;;;3.13;;
57389;SDS011;43217;52.694;6.214;2023-06-14T04:55:56;4.32;;;3.35;;
57389;SDS011;43217;52.694;6.214;2023-06-14T04:58:21;4.82;;;3.05;;
57389;SDS011;43217;52.694;6.214;2023-06-14T05:00:47;4.32;;;3.25;;
57389;SDS011;43217;52.694;6.214;2023-06-14T05:03:13;7.70;;;3.35;;
57389;SDS011;43217;52.694;6.214;2023-06-14T05:05:39;3.28;;;2.97;;
57389;SDS011;43217;52.694;6.214;2023-06-14T05:08:05;3.17;;;2.83;;
57389;SDS011;43217;52.694;6.214;2023-06-14T05:10:32;4.68;;;3.10;;
57389;SDS011;43217;52.694;6.214;2023-06-14T05:12:59;4.95;;;2.97;;
57389;SDS011;43217;52.694;6.214;2023-06-14T05:15:25;4.75;;;3.22;;
57389;SDS011;43217;52.694;6.214;2023-06-14T05:17:51;7.22;;;3.42;;
57389;SDS011;43217;52.694;6.214;2023-06-14T05:20:20;4.40;;;3.10;;
57389;SDS011;43217;52.694;6.214;2023-06-14T05:22:49;7.15;;;3.40;;
57389;SDS011;43217;52.694;6.214;2023-06-14T05:25:18;5.85;;;3.00;;
57389;SDS011;43217;52.694;6.214;2023-06-14T05:27:44;7.13;;;3.80;;
57389;SDS011;43217;52.694;6.214;2023-06-14T05:30:10;7.35;;;3.90;;
57389;SDS011;43217;52.694;6.214;2023-06-14T05:32:36;5.20;;;3.20;;
57389;SDS011;43217;52.694;6.214;2023-06-14T05:35:02;4.40;;;3.13;;
57389;SDS011;43217;52.694;6.214;2023-06-14T05:37:29;3.93;;;3.17;;
57389;SDS011;43217;52.694;6.214;2023-06-14T05:39:56;5.47;;;3.58;;
57389;SDS011;43217;52.694;6.214;2023-06-14T05:42:21;4.63;;;3.45;;
57389;SDS011;43217;52.694;6.214;2023-06-14T05:44:47;4.70;;;3.97;;
57389;SDS011;43217;52.694;6.214;2023-06-14T05:47:12;3.97;;;3.53;;
57389;SDS011;43217;52.694;6.214;2023-06-14T05:49:38;3.40;;;3.08;;
57389;SDS011;43217;52.694;6.214;2023-06-14T05:52:04;5.28;;;3.75;;
57389;SDS011;43217;52.694;6.214;2023-06-14T05:54:30;6.18;;;3.33;;
57389;SDS011;43217;52.694;6.214;2023-06-14T05:56:55;4.68;;;3.00;;
57389;SDS011;43217;52.694;6.214;2023-06-14T05:59:26;4.68;;;3.20;;
57389;SDS011;43217;52.694;6.214;2023-06-14T06:01:52;5.18;;;3.33;;
57389;SDS011;43217;52.694;6.214;2023-06-14T06:04:18;5.28;;;3.50;;
57389;SDS011;43217;52.694;6.214;2023-06-14T06:06:44;4.40;;;3.28;;
57389;SDS011;43217;52.694;6.214;2023-06-14T06:09:10;5.57;;;3.35;;
57389;SDS011;43217;52.694;6.214;2023-06-14T06:11:35;5.72;;;2.92;;
57389;SDS011;43217;52.694;6.214;2023-06-14T06:14:01;3.67;;;2.95;;
57389;SDS011;43217;52.694;6.214;2023-06-14T06:16:27;5.03;;;3.17;;
57389;SDS011;43217;52.694;6.214;2023-06-14T06:18:52;5.35;;;3.10;;
57389;SDS011;43217;52.694;6.214;2023-06-14T06:21:18;5.40;;;2.85;;
57389;SDS011;43217;52.694;6.214;2023-06-14T06:23:44;5.47;;;3.05;;
57389;SDS011;43217;52.694;6.214;2023-06-14T06:26:09;4.57;;;2.72;;
57389;SDS011;43217;52.694;6.214;2023-06-14T06:28:35;3.05;;;2.60;;
57389;SDS011;43217;52.694;6.214;2023-06-14T06:31:01;4.00;;;3.00;;
57389;SDS011;43217;52.694;6.214;2023-06-14T06:33:26;3.40;;;3.10;;
57389;SDS011;43217;52.694;6.214;2023-06-14T06:35:52;3.30;;;2.45;;
57389;SDS011;43217;52.694;6.214;2023-06-14T06:38:18;5.15;;;2.63;;
57389;SDS011;43217;52.694;6.214;2023-06-14T06:40:44;4.65;;;2.80;;
57389;SDS011;43217;52.694;6.214;2023-06-14T06:43:10;3.65;;;2.38;;
57389;SDS011;43217;52.694;6.214;2023-06-14T06:45:38;4.25;;;2.60;;
57389;SDS011;43217;52.694;6.214;2023-06-14T06:48:05;3.45;;;2.70;;
57389;SDS011;43217;52.694;6.214;2023-06-14T06:50:31;4.95;;;2.63;;
57389;SDS011;43217;52.694;6.214;2023-06-14T06:52:56;2.65;;;2.45;;
57389;SDS011;43217;52.694;6.214;2023-06-14T06:55:22;3.10;;;2.38;;
57389;SDS011;43217;52.694;6.214;2023-06-14T06:57:48;3.53;;;2.40;;
57389;SDS011;43217;52.694;6.214;2023-06-14T07:00:15;5.95;;;2.63;;
57389;SDS011;43217;52.694;6.214;2023-06-14T07:02:41;5.05;;;2.40;;
57389;SDS011;43217;52.694;6.214;2023-06-14T07:05:07;3.50;;;2.30;;
57389;SDS011;43217;52.694;6.214;2023-06-14T07:07:33;2.85;;;2.25;;
57389;SDS011;43217;52.694;6.214;2023-06-14T07:09:59;3.10;;;2.80;;
57389;SDS011;43217;52.694;6.214;2023-06-14T07:12:25;4.63;;;2.63;;
57389;SDS011;43217;52.694;6.214;2023-06-14T07:14:51;2.83;;;2.23;;
57389;SDS011;43217;52.694;6.214;2023-06-14T07:17:16;3.83;;;2.30;;
57389;SDS011;43217;52.694;6.214;2023-06-14T07:19:42;2.70;;;2.42;;
57389;SDS011;43217;52.694;6.214;2023-06-14T07:22:08;4.03;;;2.28;;
57389;SDS011;43217;52.694;6.214;2023-06-14T07:24:34;2.40;;;2.20;;
57389;SDS011;43217;52.694;6.214;2023-06-14T07:27:01;3.13;;;2.20;;
57389;SDS011;43217;52.694;6.214;2023-06-14T07:29:29;2.85;;;2.05;;
57389;SDS011;43217;52.694;6.214;2023-06-14T07:31:55;3.60;;;2.17;;
57389;SDS011;43217;52.694;6.214;2023-06-14T07:34:20;3.93;;;2.47;;
57389;SDS011;43217;52.694;6.214;2023-06-14T07:36:46;2.47;;;2.28;;
57389;SDS011;43217;52.694;6.214;2023-06-14T07:39:12;3.80;;;2.38;;
57389;SDS011;43217;52.694;6.214;2023-06-14T07:41:38;3.10;;;2.30;;
57389;SDS011;43217;52.694;6.214;2023-06-14T07:44:04;3.90;;;2.30;;
57389;SDS011;43217;52.694;6.214;2023-06-14T07:46:29;4.60;;;2.20;;
57389;SDS011;43217;52.694;6.214;2023-06-14T07:48:55;2.03;;;1.93;;
57389;SDS011;43217;52.694;6.214;2023-06-14T07:51:21;2.50;;;2.30;;
57389;SDS011;43217;52.694;6.214;2023-06-14T07:53:48;4.40;;;2.20;;
57389;SDS011;43217;52.694;6.214;2023-06-14T07:56:14;2.97;;;2.17;;
57389;SDS011;43217;52.694;6.214;2023-06-14T07:58:40;4.68;;;2.17;;
57389;SDS011;43217;52.694;6.214;2023-06-14T08:01:05;4.30;;;2.00;;
57389;SDS011;43217;52.694;6.214;2023-06-14T08:03:33;4.05;;;2.20;;
57389;SDS011;43217;52.694;6.214;2023-06-14T08:05:59;3.38;;;2.08;;
57389;SDS011;43217;52.694;6.214;2023-06-14T08:08:26;5.38;;;2.03;;
57389;SDS011;43217;52.694;6.214;2023-06-14T08:10:52;4.40;;;2.00;;
57389;SDS011;43217;52.694;6.214;2023-06-14T08:13:17;2.13;;;1.93;;
57389;SDS011;43217;52.694;6.214;2023-06-14T08:15:43;3.55;;;2.00;;
57389;SDS011;43217;52.694;6.214;2023-06-14T08:18:09;3.50;;;2.17;;
57389;SDS011;43217;52.694;6.214;2023-06-14T08:20:35;2.20;;;2.00;;
57389;SDS011;43217;52.694;6.214;2023-06-14T08:23:02;2.20;;;2.00;;
57389;SDS011;43217;52.694;6.214;2023-06-14T08:25:29;2.85;;;2.10;;
57389;SDS011;43217;52.694;6.214;2023-06-14T08:27:56;4.85;;;2.35;;
57389;SDS011;43217;52.694;6.214;2023-06-14T08:30:22;3.13;;;2.00;;
57389;SDS011;43217;52.694;6.214;2023-06-14T08:32:48;3.20;;;2.23;;
57389;SDS011;43217;52.694;6.214;2023-06-14T08:35:13;2.57;;;2.27;;
57389;SDS011;43217;52.694;6.214;2023-06-14T08:37:39;2.00;;;1.80;;
57389;SDS011;43217;52.694;6.214;2023-06-14T08:40:07;3.22;;;1.77;;
57389;SDS011;43217;52.694;6.214;2023-06-14T08:42:47;4.03;;;2.15;;
57389;SDS011;43217;52.694;6.214;2023-06-14T08:45:18;2.78;;;2.10;;
57389;SDS011;43217;52.694;6.214;2023-06-14T08:47:50;1.92;;;1.63;;
57389;SDS011;43217;52.694;6.214;2023-06-14T08:50:23;5.22;;;1.90;;
57389;SDS011;43217;52.694;6.214;2023-06-14T08:52:54;4.72;;;2.22;;
57389;SDS011;43217;52.694;6.214;2023-06-14T08:55:25;2.67;;;1.70;;
57389;SDS011;43217;52.694;6.214;2023-06-14T08:57:56;3.20;;;1.80;;
57389;SDS011;43217;52.694;6.214;2023-06-14T09:00:23;4.10;;;2.00;;
57389;SDS011;43217;52.694;6.214;2023-06-14T09:02:50;1.77;;;1.63;;
57389;SDS011;43217;52.694;6.214;2023-06-14T09:05:25;1.70;;;1.60;;
57389;SDS011;43217;52.694;6.214;2023-06-14T09:07:52;3.05;;;2.00;;
57389;SDS011;43217;52.694;6.214;2023-06-14T09:10:20;2.83;;;1.90;;
57389;SDS011;43217;52.694;6.214;2023-06-14T09:12:46;1.85;;;1.70;;
57389;SDS011;43217;52.694;6.214;2023-06-14T09:15:12;3.63;;;2.07;;
57389;SDS011;43217;52.694;6.214;2023-06-14T09:17:39;2.85;;;1.67;;
57389;SDS011;43217;52.694;6.214;2023-06-14T09:20:05;4.65;;;1.83;;
57389;SDS011;43217;52.694;6.214;2023-06-14T09:22:38;1.67;;;1.50;;
57389;SDS011;43217;52.694;6.214;2023-06-14T09:25:05;3.03;;;2.00;;
57389;SDS011;43217;52.694;6.214;2023-06-14T09:29:57;2.45;;;1.58;;
57389;SDS011;43217;52.694;6.214;2023-06-14T09:32:23;1.80;;;1.60;;
57389;SDS011;43217;52.694;6.214;2023-06-14T09:34:49;1.77;;;1.67;;
57389;SDS011;43217;52.694;6.214;2023-06-14T09:37:28;2.40;;;1.73;;
57389;SDS011;43217;52.694;6.214;2023-06-14T09:39:54;3.25;;;1.65;;
57389;SDS011;43217;52.694;6.214;2023-06-14T09:42:20;2.58;;;1.60;;
57389;SDS011;43217;52.694;6.214;2023-06-14T09:44:47;2.72;;;1.75;;
57389;SDS011;43217;52.694;6.214;2023-06-14T09:47:15;5.38;;;1.73;;
57389;SDS011;43217;52.694;6.214;2023-06-14T09:49:41;2.03;;;1.45;;
57389;SDS011;43217;52.694;6.214;2023-06-14T09:52:12;1.73;;;1.60;;
57389;SDS011;43217;52.694;6.214;2023-06-14T09:54:40;3.22;;;1.80;;
57389;SDS011;43217;52.694;6.214;2023-06-14T09:57:15;2.67;;;1.55;;
57389;SDS011;43217;52.694;6.214;2023-06-14T09:59:50;4.85;;;1.50;;
57389;SDS011;43217;52.694;6.214;2023-06-14T10:02:22;1.38;;;1.27;;
57389;SDS011;43217;52.694;6.214;2023-06-14T10:04:56;3.90;;;1.70;;
57389;SDS011;43217;52.694;6.214;2023-06-14T10:07:53;4.00;;;1.40;;
57389;SDS011;43217;52.694;6.214;2023-06-14T10:10:24;3.00;;;1.55;;
57389;SDS011;43217;52.694;6.214;2023-06-14T10:12:50;2.13;;;1.47;;
57389;SDS011;43217;52.694;6.214;2023-06-14T10:15:18;1.25;;;1.25;;
57389;SDS011;43217;52.694;6.214;2023-06-14T10:18:31;1.75;;;1.17;;
57389;SDS011;43217;52.694;6.214;2023-06-14T10:21:16;1.95;;;1.33;;
57389;SDS011;43217;52.694;6.214;2023-06-14T10:23:48;3.30;;;1.23;;
57389;SDS011;43217;52.694;6.214;2023-06-14T10:26:22;1.25;;;1.00;;
57389;SDS011;43217;52.694;6.214;2023-06-14T10:29:07;2.03;;;1.42;;
57389;SDS011;43217;52.694;6.214;2023-06-14T10:31:40;1.77;;;1.67;;
57389;SDS011;43217;52.694;6.214;2023-06-14T10:34:07;2.35;;;1.52;;
57389;SDS011;43217;52.694;6.214;2023-06-14T10:36:35;1.50;;;1.20;;
57389;SDS011;43217;52.694;6.214;2023-06-14T10:39:03;4.25;;;1.42;;
57389;SDS011;43217;52.694;6.214;2023-06-14T10:41:37;4.85;;;1.20;;
57389;SDS011;43217;52.694;6.214;2023-06-14T10:46:39;1.90;;;1.40;;
57389;SDS011;43217;52.694;6.214;2023-06-14T10:51:38;1.30;;;1.20;;
57389;SDS011;43217;52.694;6.214;2023-06-14T10:54:12;3.10;;;1.20;;
57389;SDS011;43217;52.694;6.214;2023-06-14T10:59:11;3.80;;;1.65;;
57389;SDS011;43217;52.694;6.214;2023-06-14T11:01:38;1.40;;;1.30;;
57389;SDS011;43217;52.694;6.214;2023-06-14T11:04:12;4.60;;;1.50;;
57389;SDS011;43217;52.694;6.214;2023-06-14T11:06:47;2.85;;;1.50;;
57389;SDS011;43217;52.694;6.214;2023-06-14T11:12:22;1.60;;;1.50;;
57389;SDS011;43217;52.694;6.214;2023-06-14T11:14:50;1.75;;;1.40;;
57389;SDS011;43217;52.694;6.214;2023-06-14T11:17:16;2.60;;;1.42;;
57389;SDS011;43217;52.694;6.214;2023-06-14T11:19:42;1.40;;;1.20;;
57389;SDS011;43217;52.694;6.214;2023-06-14T11:22:09;2.92;;;1.50;;
57389;SDS011;43217;52.694;6.214;2023-06-14T11:24:35;2.77;;;1.27;;
57389;SDS011;43217;52.694;6.214;2023-06-14T11:27:01;1.87;;;1.43;;
57389;SDS011;43217;52.694;6.214;2023-06-14T11:29:28;2.03;;;1.47;;
57389;SDS011;43217;52.694;6.214;2023-06-14T11:31:54;1.60;;;1.27;;
57389;SDS011;43217;52.694;6.214;2023-06-14T11:34:20;3.83;;;1.53;;
57389;SDS011;43217;52.694;6.214;2023-06-14T11:36:46;3.78;;;1.70;;
57389;SDS011;43217;52.694;6.214;2023-06-14T11:39:12;2.13;;;1.33;;
57389;SDS011;43217;52.694;6.214;2023-06-14T11:41:44;2.17;;;1.40;;
57389;SDS011;43217;52.694;6.214;2023-06-14T11:44:10;2.72;;;1.45;;
57389;SDS011;43217;52.694;6.214;2023-06-14T11:46:36;2.55;;;1.35;;
57389;SDS011;43217;52.694;6.214;2023-06-14T11:49:03;2.15;;;1.40;;
57389;SDS011;43217;52.694;6.214;2023-06-14T11:51:30;3.10;;;1.65;;
57389;SDS011;43217;52.694;6.214;2023-06-14T11:53:59;2.90;;;1.60;;
57389;SDS011;43217;52.694;6.214;2023-06-14T11:56:28;3.05;;;1.70;;
57389;SDS011;43217;52.694;6.214;2023-06-14T11:58:56;3.53;;;1.70;;
57389;SDS011;43217;52.694;6.214;2023-06-14T12:01:22;2.10;;;1.77;;
57389;SDS011;43217;52.694;6.214;2023-06-14T12:03:48;4.00;;;1.57;;
57389;SDS011;43217;52.694;6.214;2023-06-14T12:06:15;1.80;;;1.50;;
57389;SDS011;43217;52.694;6.214;2023-06-14T12:08:42;1.63;;;1.52;;
57389;SDS011;43217;52.694;6.214;2023-06-14T12:11:11;1.17;;;1.17;;
57389;SDS011;43217;52.694;6.214;2023-06-14T12:13:41;3.42;;;1.90;;
57389;SDS011;43217;52.694;6.214;2023-06-14T12:16:08;1.50;;;1.40;;
57389;SDS011;43217;52.694;6.214;2023-06-14T12:18:38;3.35;;;1.55;;
57389;SDS011;43217;52.694;6.214;2023-06-14T12:21:08;3.30;;;1.80;;
57389;SDS011;43217;52.694;6.214;2023-06-14T12:23:45;2.30;;;1.60;;
57389;SDS011;43217;52.694;6.214;2023-06-14T12:26:12;1.63;;;1.52;;
57389;SDS011;43217;52.694;6.214;2023-06-14T12:28:40;3.03;;;1.77;;
57389;SDS011;43217;52.694;6.214;2023-06-14T12:31:07;2.47;;;1.63;;
57389;SDS011;43217;52.694;6.214;2023-06-14T12:33:32;1.90;;;1.80;;
57389;SDS011;43217;52.694;6.214;2023-06-14T12:35:58;1.60;;;1.50;;
57389;SDS011;43217;52.694;6.214;2023-06-14T12:38:24;3.35;;;2.00;;
57389;SDS011;43217;52.694;6.214;2023-06-14T12:40:50;3.38;;;1.67;;
57389;SDS011;43217;52.694;6.214;2023-06-14T12:43:17;1.58;;;1.40;;
57389;SDS011;43217;52.694;6.214;2023-06-14T12:45:43;1.60;;;1.50;;
57389;SDS011;43217;52.694;6.214;2023-06-14T12:48:09;1.60;;;1.50;;
57389;SDS011;43217;52.694;6.214;2023-06-14T12:50:34;1.60;;;1.50;;
57389;SDS011;43217;52.694;6.214;2023-06-14T12:53:00;3.15;;;1.50;;
57389;SDS011;43217;52.694;6.214;2023-06-14T12:55:26;2.78;;;1.50;;
57389;SDS011;43217;52.694;6.214;2023-06-14T12:57:51;1.55;;;1.45;;
57389;SDS011;43217;52.694;6.214;2023-06-14T13:00:17;1.83;;;1.63;;
57389;SDS011;43217;52.694;6.214;2023-06-14T13:02:43;2.40;;;1.58;;
57389;SDS011;43217;52.694;6.214;2023-06-14T13:05:09;1.60;;;1.45;;
57389;SDS011;43217;52.694;6.214;2023-06-14T13:07:34;2.67;;;1.65;;
57389;SDS011;43217;52.694;6.214;2023-06-14T13:10:00;3.92;;;1.75;;
57389;SDS011;43217;52.694;6.214;2023-06-14T13:12:26;2.08;;;1.60;;
57389;SDS011;43217;52.694;6.214;2023-06-14T13:14:52;2.13;;;1.67;;
57389;SDS011;43217;52.694;6.214;2023-06-14T13:17:17;2.75;;;1.70;;
57389;SDS011;43217;52.694;6.214;2023-06-14T13:19:43;3.03;;;1.60;;
57389;SDS011;43217;52.694;6.214;2023-06-14T13:22:09;2.60;;;1.58;;
57389;SDS011;43217;52.694;6.214;2023-06-14T13:24:35;1.60;;;1.50;;
57389;SDS011;43217;52.694;6.214;2023-06-14T13:27:01;2.70;;;1.90;;
57389;SDS011;43217;52.694;6.214;2023-06-14T13:29:27;3.15;;;1.75;;
57389;SDS011;43217;52.694;6.214;2023-06-14T13:31:53;2.35;;;1.55;;
57389;SDS011;43217;52.694;6.214;2023-06-14T13:34:19;2.17;;;1.55;;
57389;SDS011;43217;52.694;6.214;2023-06-14T13:36:45;1.60;;;1.50;;
57389;SDS011;43217;52.694;6.214;2023-06-14T13:39:11;1.77;;;1.65;;
57389;SDS011;43217;52.694;6.214;2023-06-14T13:41:37;3.30;;;1.80;;
57389;SDS011;43217;52.694;6.214;2023-06-14T13:44:02;5.68;;;1.90;;
57389;SDS011;43217;52.694;6.214;2023-06-14T13:46:31;2.13;;;1.65;;
57389;SDS011;43217;52.694;6.214;2023-06-14T13:48:56;2.60;;;1.75;;
57389;SDS011;43217;52.694;6.214;2023-06-14T13:51:23;2.07;;;1.77;;
57389;SDS011;43217;52.694;6.214;2023-06-14T13:53:49;4.85;;;1.70;;
57389;SDS011;43217;52.694;6.214;2023-06-14T13:56:15;5.38;;;1.90;;
57389;SDS011;43217;52.694;6.214;2023-06-14T13:58:41;1.40;;;1.30;;
57389;SDS011;43217;52.694;6.214;2023-06-14T14:01:07;3.50;;;1.80;;
57389;SDS011;43217;52.694;6.214;2023-06-14T14:03:33;3.53;;;1.90;;
57389;SDS011;43217;52.694;6.214;2023-06-14T14:06:00;3.40;;;1.48;;
57389;SDS011;43217;52.694;6.214;2023-06-14T14:08:27;4.35;;;1.70;;
57389;SDS011;43217;52.694;6.214;2023-06-14T14:10:53;2.85;;;1.55;;
57389;SDS011;43217;52.694;6.214;2023-06-14T14:13:20;2.67;;;1.45;;
57389;SDS011;43217;52.694;6.214;2023-06-14T14:15:46;2.65;;;1.40;;
57389;SDS011;43217;52.694;6.214;2023-06-14T14:18:12;1.92;;;1.65;;
57389;SDS011;43217;52.694;6.214;2023-06-14T14:20:37;1.85;;;1.73;;
57389;SDS011;43217;52.694;6.214;2023-06-14T14:23:03;2.17;;;1.98;;
57389;SDS011;43217;52.694;6.214;2023-06-14T14:25:29;3.08;;;1.63;;
57389;SDS011;43217;52.694;6.214;2023-06-14T14:27:55;1.83;;;1.73;;
57389;SDS011;43217;52.694;6.214;2023-06-14T14:30:21;1.50;;;1.40;;
57389;SDS011;43217;52.694;6.214;2023-06-14T14:32:48;2.95;;;1.60;;
57389;SDS011;43217;52.694;6.214;2023-06-14T14:35:16;2.92;;;1.55;;
57389;SDS011;43217;52.694;6.214;2023-06-14T14:40:08;2.83;;;1.50;;
57389;SDS011;43217;52.694;6.214;2023-06-14T14:42:35;2.38;;;1.70;;
57389;SDS011;43217;52.694;6.214;2023-06-14T14:45:01;3.60;;;1.58;;
57389;SDS011;43217;52.694;6.214;2023-06-14T14:47:27;2.13;;;1.60;;
57389;SDS011;43217;52.694;6.214;2023-06-14T14:49:52;1.75;;;1.65;;
57389;SDS011;43217;52.694;6.214;2023-06-14T14:52:18;2.67;;;1.73;;
57389;SDS011;43217;52.694;6.214;2023-06-14T14:54:43;2.95;;;1.65;;
57389;SDS011;43217;52.694;6.214;2023-06-14T14:57:09;3.13;;;1.40;;
57389;SDS011;43217;52.694;6.214;2023-06-14T14:59:35;1.77;;;1.67;;
57389;SDS011;43217;52.694;6.214;2023-06-14T15:02:01;1.88;;;1.40;;
57389;SDS011;43217;52.694;6.214;2023-06-14T15:04:30;1.75;;;1.25;;
57389;SDS011;43217;52.694;6.214;2023-06-14T15:06:56;2.10;;;1.50;;
57389;SDS011;43217;52.694;6.214;2023-06-14T15:09:22;2.03;;;1.30;;
57389;SDS011;43217;52.694;6.214;2023-06-14T15:11:48;1.58;;;1.48;;